Terminal Aerodrome Forecast
Issued by NWS

Home | Current Version | Previous Version | Text Only | Print | Product List | Glossary On
Versions: 1 2 3 4 5 6 7 8 9 10 11 12 13 14 15
000
FTUS46 KLOX 292300 RRA
TAFVNY
TAF
KVNY 292340Z 3000/3024 16006KT P6SM BKN150
     FM300300 VRB03KT P6SM OVC100
     FM301000 VRB03KT P6SM BKN070 OVC100
     FM302200 15006KT P6SM OVC100=

USA.gov is the U.S. government's official web portal to all federal, state and local government web resources and services.